createdAt,value
2023-05-16T00:03:04.748Z,11.97
2023-05-16T00:06:08.478Z,11.07
2023-05-16T00:09:11.524Z,11.60
2023-05-16T00:12:14.558Z,11.93
2023-05-16T00:15:17.980Z,12.00
2023-05-16T00:18:22.547Z,11.03
2023-05-16T00:21:26.087Z,12.03
2023-05-16T00:24:29.097Z,12.00
2023-05-16T00:27:32.441Z,12.47
2023-05-16T00:30:35.621Z,12.17
2023-05-16T00:33:39.928Z,13.33
2023-05-16T00:36:43.202Z,13.60
2023-05-16T00:39:46.172Z,13.60
2023-05-16T00:42:49.587Z,15.00
2023-05-16T00:45:52.739Z,15.50
2023-05-16T00:48:57.108Z,15.57
2023-05-16T00:52:02.861Z,17.00
2023-05-16T00:55:07.631Z,17.63
2023-05-16T00:58:12.574Z,15.13
2023-05-16T01:01:15.735Z,16.77
2023-05-16T01:04:20.598Z,16.63
2023-05-16T01:07:23.804Z,15.73
2023-05-16T01:10:35.154Z,16.83
2023-05-16T01:13:48.079Z,17.97
2023-05-16T01:17:01.069Z,17.37
2023-05-16T01:20:15.685Z,18.53
2023-05-16T01:23:32.614Z,18.87
2023-05-16T01:26:37.916Z,20.10
2023-05-16T01:29:42.460Z,21.33
2023-05-16T01:32:46.980Z,20.77
2023-05-16T01:36:00.720Z,21.13
2023-05-16T01:39:10.608Z,22.83
2023-05-16T01:42:17.112Z,24.17
2023-05-16T01:45:26.108Z,23.43
2023-05-16T01:48:36.934Z,26.03
2023-05-16T01:51:42.531Z,25.80
2023-05-16T01:54:49.678Z,26.57
2023-05-16T01:57:55.237Z,29.73
2023-05-16T02:01:03.826Z,28.07
2023-05-16T02:04:06.882Z,21.60
2023-05-16T02:07:11.807Z,22.43
2023-05-16T02:10:15.078Z,21.13
2023-05-16T02:13:19.557Z,20.70
2023-05-16T02:16:22.845Z,20.33
2023-05-16T02:19:25.978Z,21.73
2023-05-16T02:22:28.997Z,22.80
2023-05-16T02:25:32.007Z,20.77
2023-05-16T02:28:36.933Z,20.70
2023-05-16T02:31:40.091Z,20.87
2023-05-16T02:34:43.184Z,20.87
2023-05-16T02:37:46.486Z,20.10
2023-05-16T02:40:49.961Z,22.17
2023-05-16T02:43:54.563Z,20.60
2023-05-16T02:46:57.529Z,21.03
2023-05-16T02:50:00.670Z,20.87
2023-05-16T02:53:03.954Z,22.43
2023-05-16T02:56:07.340Z,20.87
2023-05-16T02:59:14.323Z,21.90
2023-05-16T03:02:17.427Z,22.00
2023-05-16T03:05:20.499Z,20.73
2023-05-16T03:08:23.611Z,19.50
2023-05-16T03:11:26.856Z,21.13
2023-05-16T03:15:19.545Z,20.83
2023-05-16T03:18:22.775Z,21.80
2023-05-16T03:21:25.991Z,20.63
2023-05-16T03:24:29.069Z,21.17
2023-05-16T03:27:32.189Z,22.53
2023-05-16T03:30:37.281Z,23.13
2023-05-16T03:33:40.349Z,21.80
2023-05-16T03:36:43.801Z,21.73
2023-05-16T03:39:46.857Z,21.37
2023-05-16T03:42:50.177Z,21.20
2023-05-16T03:45:54.735Z,21.47
2023-05-16T03:48:57.796Z,24.00
2023-05-16T03:52:01.043Z,22.73
2023-05-16T03:55:05.955Z,21.57
2023-05-16T03:58:09.008Z,24.60
2023-05-16T04:01:13.598Z,25.53
2023-05-16T04:04:16.538Z,25.70
2023-05-16T04:07:20.815Z,24.70
2023-05-16T04:10:25.872Z,23.80
2023-05-16T04:13:29.046Z,23.57
2023-05-16T04:16:33.543Z,26.10
2023-05-16T04:19:39.295Z,23.43
2023-05-16T04:22:42.585Z,22.13
2023-05-16T04:25:46.278Z,23.30
2023-05-16T04:28:49.383Z,22.77
2023-05-16T04:31:55.167Z,24.60
2023-05-16T04:34:58.468Z,23.17
2023-05-16T04:38:01.945Z,24.37
2023-05-16T04:41:05.111Z,25.30
2023-05-16T04:44:08.804Z,25.97
2023-05-16T04:47:13.351Z,26.80
2023-05-16T04:50:18.094Z,26.90
2023-05-16T04:53:21.304Z,27.73
2023-05-16T04:56:24.290Z,28.47
2023-05-16T04:59:27.268Z,25.57
2023-05-16T05:02:31.728Z,26.73
2023-05-16T05:05:35.549Z,25.87
2023-05-16T05:08:39.003Z,27.20
2023-05-16T05:11:42.334Z,27.97
2023-05-16T05:14:45.412Z,27.47
2023-05-16T05:17:49.868Z,27.97
2023-05-16T05:20:56.928Z,29.77
2023-05-16T05:24:00.132Z,29.33
2023-05-16T05:27:06.841Z,27.33
2023-05-16T05:30:11.418Z,30.23
2023-05-16T05:33:18.879Z,27.93
2023-05-16T05:36:22.195Z,25.77
2023-05-16T05:39:25.919Z,24.10
2023-05-16T05:42:31.834Z,24.60
2023-05-16T05:45:34.881Z,25.13
2023-05-16T05:48:39.249Z,27.07
2023-05-16T05:51:42.451Z,26.03
2023-05-16T05:54:45.538Z,23.37
2023-05-16T05:57:48.580Z,25.87
2023-05-16T06:00:52.082Z,25.67
2023-05-16T06:03:57.791Z,23.37
2023-05-16T06:07:01.464Z,23.17
2023-05-16T06:10:06.108Z,20.20
2023-05-16T06:13:09.338Z,19.13
2023-05-16T06:16:12.502Z,20.07
2023-05-16T06:19:17.021Z,18.80
2023-05-16T06:22:20.153Z,15.80
2023-05-16T06:25:23.484Z,16.10
2023-05-16T06:28:26.671Z,17.33
2023-05-16T06:31:29.944Z,16.90
2023-05-16T06:50:41.370Z,13.83
2023-05-16T06:53:44.538Z,12.47
2023-05-16T06:56:47.583Z,13.57
2023-05-16T06:59:50.694Z,13.07
2023-05-16T07:02:54.178Z,13.33
2023-05-16T07:05:58.695Z,12.90
2023-05-16T07:09:02.304Z,12.10
2023-05-16T07:12:06.736Z,12.67
2023-05-16T07:15:11.414Z,12.10
2023-05-16T07:18:15.850Z,12.27
2023-05-16T07:21:20.688Z,10.77
2023-05-16T07:24:23.769Z,11.50
2023-05-16T07:27:26.877Z,11.07
2023-05-16T07:30:30.607Z,11.17
2023-05-16T07:33:33.846Z,10.57
2023-05-16T07:36:38.636Z,10.93
2023-05-16T07:39:41.709Z,10.73
2023-05-16T07:42:44.875Z,11.13
2023-05-16T07:45:48.028Z,12.10
2023-05-16T07:48:53.432Z,9.70
2023-05-16T07:51:57.931Z,9.07
2023-05-16T07:55:03.582Z,9.57
2023-05-16T07:58:06.836Z,8.73
2023-05-16T08:01:10.064Z,8.23
2023-05-16T08:04:13.178Z,8.03
2023-05-16T08:07:20.514Z,8.17
2023-05-16T08:10:24.362Z,8.27
2023-05-16T08:13:28.041Z,7.20
2023-05-16T08:16:31.275Z,8.60
2023-05-16T08:19:36.169Z,6.87
2023-05-16T08:22:40.675Z,8.23
2023-05-16T08:25:43.763Z,6.90
2023-05-16T08:28:47.286Z,7.47
2023-05-16T08:31:50.635Z,7.70
2023-05-16T08:34:53.802Z,7.10
2023-05-16T08:37:58.215Z,6.70
2023-05-16T08:41:01.582Z,6.77
2023-05-16T08:44:05.470Z,6.97
2023-05-16T08:47:14.217Z,5.93
2023-05-16T08:50:20.112Z,6.00
2023-05-16T08:53:34.086Z,6.27
2023-05-16T08:56:39.038Z,5.43
2023-05-16T08:59:42.915Z,5.23
2023-05-16T09:02:46.924Z,5.67
2023-05-16T09:05:50.697Z,5.33
2023-05-16T09:09:03.689Z,5.53
2023-05-16T09:12:07.974Z,5.83
2023-05-16T09:15:12.679Z,4.87
2023-05-16T09:18:19.286Z,5.23
2023-05-16T09:27:43.312Z,4.23
2023-05-16T09:31:52.072Z,4.60
2023-05-16T09:35:45.270Z,3.83
2023-05-16T09:38:54.457Z,5.20
2023-05-16T09:42:22.343Z,5.70
2023-05-16T09:46:07.555Z,4.87
2023-05-16T09:49:53.714Z,4.70
2023-05-16T09:53:30.727Z,4.47
2023-05-16T09:56:35.001Z,4.77
2023-05-16T10:00:17.817Z,4.57
2023-05-16T10:03:34.949Z,4.47
2023-05-16T10:06:55.026Z,4.37
2023-05-16T10:10:20.892Z,4.13
2023-05-16T10:13:35.552Z,4.10
2023-05-16T10:16:51.570Z,4.47
2023-05-16T10:20:27.474Z,4.47
2023-05-16T10:23:49.593Z,4.13
2023-05-16T10:27:44.140Z,4.20
2023-05-16T10:31:55.765Z,4.97
2023-05-16T10:35:04.782Z,4.93
2023-05-16T10:38:20.600Z,5.27
2023-05-16T10:41:28.615Z,4.93
2023-05-16T10:45:01.872Z,5.77
2023-05-16T10:48:52.867Z,4.60
2023-05-16T10:52:21.642Z,4.73
2023-05-16T10:55:34.436Z,5.63
2023-05-16T10:58:58.402Z,5.13
2023-05-16T11:02:31.312Z,6.07
2023-05-16T11:05:45.100Z,5.33
2023-05-16T11:09:24.198Z,5.10
2023-05-16T11:19:14.935Z,6.20
2023-05-16T11:22:30.546Z,5.37
2023-05-16T11:25:42.251Z,4.83
2023-05-16T11:28:50.197Z,4.70
2023-05-16T11:31:56.780Z,4.70
2023-05-16T11:35:00.584Z,5.03
2023-05-16T11:38:03.678Z,5.20
2023-05-16T11:41:10.112Z,5.03
2023-05-16T11:44:15.572Z,5.07
2023-05-16T11:47:22.080Z,4.40
2023-05-16T11:50:25.106Z,4.70
2023-05-16T11:53:31.030Z,4.73
2023-05-16T11:56:36.914Z,5.07
2023-05-16T11:59:40.186Z,4.90
2023-05-16T12:02:43.734Z,4.13
2023-05-16T12:05:54.689Z,4.03
2023-05-16T12:08:57.828Z,4.50
2023-05-16T12:12:07.230Z,3.67
2023-05-16T12:15:12.335Z,4.60
2023-05-16T12:18:16.981Z,4.37
2023-05-16T12:21:20.508Z,4.10
2023-05-16T12:24:30.701Z,5.10
2023-05-16T12:27:35.323Z,4.30
2023-05-16T12:30:42.611Z,4.27
2023-05-16T12:33:46.945Z,5.00
2023-05-16T12:36:55.231Z,4.17
2023-05-16T12:40:01.510Z,3.83
2023-05-16T12:43:14.362Z,4.23
2023-05-16T12:46:17.930Z,4.27
2023-05-16T12:49:22.732Z,3.90
2023-05-16T12:52:30.299Z,5.13
2023-05-16T12:55:33.414Z,4.03
2023-05-16T12:58:38.072Z,4.40
2023-05-16T13:01:42.060Z,4.93
2023-05-16T13:04:45.341Z,4.73
2023-05-16T13:07:48.473Z,3.75
2023-05-16T13:10:51.823Z,4.78
2023-05-16T13:13:57.584Z,4.03
2023-05-16T13:17:00.813Z,4.68
2023-05-16T13:20:08.354Z,4.32
2023-05-16T13:23:11.424Z,3.78
2023-05-16T13:26:14.461Z,3.33
2023-05-16T13:29:19.192Z,4.47
2023-05-16T13:32:22.428Z,3.72
2023-05-16T13:35:26.614Z,3.78
2023-05-16T13:38:29.828Z,3.85
2023-05-16T13:41:37.658Z,3.30
2023-05-16T13:44:44.835Z,3.83
2023-05-16T13:47:48.460Z,4.18
2023-05-16T13:50:52.004Z,3.83
2023-05-16T13:53:55.306Z,3.30
2023-05-16T13:56:58.531Z,3.65
2023-05-16T14:00:31.297Z,4.10
2023-05-16T14:03:28.514Z,3.55
2023-05-16T14:06:32.040Z,3.70
2023-05-16T14:09:39.645Z,3.08
2023-05-16T14:12:42.645Z,3.92
2023-05-16T14:15:47.491Z,2.90
2023-05-16T14:18:51.638Z,2.58
2023-05-16T14:21:55.030Z,2.72
2023-05-16T14:25:01.380Z,3.67
2023-05-16T14:28:05.220Z,2.95
2023-05-16T14:31:09.785Z,3.17
2023-05-16T14:34:12.972Z,3.50
2023-05-16T14:37:20.277Z,3.00
2023-05-16T14:40:23.581Z,3.30
2023-05-16T14:43:26.628Z,3.35
2023-05-16T14:46:31.082Z,2.88
2023-05-16T14:49:38.186Z,3.08
2023-05-16T14:52:46.931Z,3.30
2023-05-16T14:55:52.787Z,3.13
2023-05-16T14:58:56.342Z,2.90
2023-05-16T15:02:01.019Z,2.85
2023-05-16T15:05:06.675Z,3.20
2023-05-16T15:08:09.726Z,2.95
2023-05-16T15:11:13.236Z,3.67
2023-05-16T15:14:16.260Z,2.78
2023-05-16T15:17:24.485Z,3.15
2023-05-16T15:20:28.302Z,2.83
2023-05-16T15:23:31.744Z,2.63
2023-05-16T15:26:39.687Z,2.85
2023-05-16T15:29:42.769Z,2.63
2023-05-16T15:32:48.314Z,3.05
2023-05-16T15:35:53.949Z,3.40
2023-05-16T15:38:57.078Z,2.63
2023-05-16T15:42:09.135Z,2.70
2023-05-16T15:45:13.725Z,2.30
2023-05-16T15:48:19.551Z,3.00
2023-05-16T15:51:28.352Z,2.97
2023-05-16T15:54:31.466Z,2.63
2023-05-16T15:57:37.832Z,2.63
2023-05-16T16:00:41.138Z,2.90
2023-05-16T16:03:46.358Z,3.05
2023-05-16T16:06:52.471Z,2.92
2023-05-16T16:09:55.702Z,2.67
2023-05-16T16:13:03.861Z,2.72
2023-05-16T16:16:08.066Z,2.83
2023-05-16T16:19:12.593Z,2.60
2023-05-16T16:22:16.831Z,3.50
2023-05-16T16:25:20.057Z,3.53
2023-05-16T16:28:23.297Z,2.90
2023-05-16T16:31:33.693Z,2.80
2023-05-16T16:34:38.113Z,2.70
2023-05-16T16:38:02.105Z,2.70
2023-05-16T16:41:08.307Z,2.70
2023-05-16T16:44:12.174Z,2.85
2023-05-16T16:47:15.758Z,3.13
2023-05-16T16:50:20.502Z,3.10
2023-05-16T16:53:23.612Z,2.88
2023-05-16T16:56:27.990Z,2.85
2023-05-16T16:59:31.031Z,2.97
2023-05-16T17:02:34.098Z,2.38
2023-05-16T17:05:42.382Z,2.30
2023-05-16T17:08:48.087Z,2.80
2023-05-16T17:11:51.645Z,2.08
2023-05-16T17:14:56.237Z,2.15
2023-05-16T17:18:00.658Z,2.45
2023-05-16T17:21:05.305Z,2.78
2023-05-16T17:24:09.566Z,2.42
2023-05-16T17:27:13.411Z,2.50
2023-05-16T17:30:20.023Z,4.68
2023-05-16T17:33:22.992Z,2.65
2023-05-16T17:36:27.471Z,3.00
2023-05-16T17:39:32.230Z,3.10
2023-05-16T17:42:35.420Z,2.53
2023-05-16T17:45:47.021Z,2.53
2023-05-16T17:48:50.411Z,2.77
2023-05-16T17:51:58.127Z,3.20
2023-05-16T17:55:03.927Z,2.40
2023-05-16T17:58:09.568Z,3.17
2023-05-16T18:01:20.553Z,2.60
2023-05-16T18:04:23.833Z,3.07
2023-05-16T18:07:28.629Z,4.07
2023-05-16T18:10:43.782Z,2.60
2023-05-16T18:14:07.984Z,3.00
2023-05-16T18:22:04.056Z,2.87
2023-05-16T18:25:26.664Z,3.53
2023-05-16T18:28:30.340Z,2.57
2023-05-16T18:31:41.056Z,2.70
2023-05-16T18:34:45.793Z,3.20
2023-05-16T18:37:56.633Z,3.50
2023-05-16T18:41:13.126Z,2.73
2023-05-16T18:44:18.136Z,3.40
2023-05-16T18:47:39.167Z,3.73
2023-05-16T18:50:52.119Z,3.50
2023-05-16T18:53:59.779Z,3.00
2023-05-16T18:57:18.668Z,3.63
2023-05-16T19:00:41.421Z,3.13
2023-05-16T19:03:52.606Z,3.30
2023-05-16T19:06:56.458Z,3.13
2023-05-16T19:10:04.963Z,2.50
2023-05-16T19:13:09.496Z,3.00
2023-05-16T19:16:12.920Z,3.90
2023-05-16T19:19:16.235Z,2.60
2023-05-16T19:22:20.595Z,2.97
2023-05-16T19:25:26.475Z,2.80
2023-05-16T19:28:31.076Z,3.23
2023-05-16T19:31:34.118Z,2.83
2023-05-16T19:34:37.650Z,3.03
2023-05-16T19:37:40.998Z,2.87
2023-05-16T19:40:47.042Z,2.77
2023-05-16T19:43:52.065Z,2.90
2023-05-16T19:46:55.569Z,2.90
2023-05-16T19:49:58.540Z,3.20
2023-05-16T19:53:01.716Z,2.83
2023-05-16T19:56:11.920Z,2.97
2023-05-16T19:59:16.304Z,3.20
2023-05-16T20:02:23.617Z,2.40
2023-05-16T20:05:27.952Z,2.73
2023-05-16T20:08:31.154Z,2.73
2023-05-16T20:11:34.500Z,3.63
2023-05-16T20:14:39.093Z,3.13
2023-05-16T20:17:42.552Z,3.07
2023-05-16T20:20:45.865Z,3.47
2023-05-16T20:23:49.086Z,3.70
2023-05-16T20:26:52.126Z,2.50
2023-05-16T20:29:57.104Z,2.80
2023-05-16T20:33:00.714Z,2.83
2023-05-16T20:36:03.862Z,2.77
2023-05-16T20:39:08.938Z,2.90
2023-05-16T20:42:12.579Z,2.80
2023-05-16T20:45:18.467Z,3.50
2023-05-16T20:48:21.760Z,2.77
2023-05-16T20:51:24.982Z,2.60
2023-05-16T20:54:28.035Z,3.43
2023-05-16T20:57:31.201Z,3.10
2023-05-16T21:00:35.776Z,2.73
2023-05-16T21:03:38.924Z,3.00
2023-05-16T21:06:42.252Z,3.07
2023-05-16T21:09:45.521Z,2.83
2023-05-16T21:12:50.096Z,3.30
2023-05-16T21:15:55.146Z,2.63
2023-05-16T21:19:01.520Z,3.10
2023-05-16T21:22:05.401Z,3.70
2023-05-16T21:25:09.392Z,3.23
2023-05-16T21:28:12.403Z,3.97
2023-05-16T21:31:17.014Z,3.67
2023-05-16T21:34:20.068Z,3.57
2023-05-16T21:37:23.142Z,3.87
2023-05-16T21:40:26.425Z,3.80
2023-05-16T21:43:29.392Z,2.70
2023-05-16T21:46:34.082Z,3.80
2023-05-16T21:49:37.179Z,2.93
2023-05-16T21:52:40.584Z,2.67
2023-05-16T21:55:43.843Z,2.70
2023-05-16T21:58:46.974Z,4.47
2023-05-16T22:01:51.587Z,3.23
2023-05-16T22:04:54.608Z,3.20
2023-05-16T22:07:57.646Z,4.43
2023-05-16T22:11:00.842Z,3.40
2023-05-16T22:14:03.876Z,3.73
2023-05-16T22:17:08.232Z,3.57
2023-05-16T22:20:12.308Z,5.03
2023-05-16T22:23:16.036Z,4.03
2023-05-16T22:26:19.151Z,4.00
2023-05-16T22:29:22.241Z,3.60
2023-05-16T22:32:27.613Z,3.90
2023-05-16T22:35:32.015Z,3.73
2023-05-16T22:38:35.294Z,3.90
2023-05-16T22:41:38.425Z,3.13
2023-05-16T22:44:44.389Z,3.27
2023-05-16T22:47:48.767Z,3.83
2023-05-16T22:50:51.764Z,3.67
2023-05-16T22:53:54.715Z,3.23
2023-05-16T22:56:57.768Z,3.47
2023-05-16T23:00:01.041Z,3.10
2023-05-16T23:03:06.389Z,3.40
2023-05-16T23:06:09.769Z,3.97
2023-05-16T23:09:13.028Z,3.20
2023-05-16T23:12:16.249Z,4.00
2023-05-16T23:15:22.364Z,3.13
2023-05-16T23:18:26.970Z,4.20
2023-05-16T23:21:30.183Z,3.43
2023-05-16T23:24:33.318Z,4.07
2023-05-16T23:27:36.734Z,3.30
2023-05-16T23:30:40.321Z,3.60
2023-05-16T23:33:44.872Z,3.70
2023-05-16T23:36:47.895Z,3.73
2023-05-16T23:39:50.987Z,4.10
2023-05-16T23:42:53.931Z,4.10
2023-05-16T23:45:56.910Z,3.93
2023-05-16T23:49:01.201Z,3.93
2023-05-16T23:52:05.970Z,3.37
2023-05-16T23:55:10.227Z,4.17
2023-05-16T23:58:13.304Z,4.13
